createdAt,value
2018-01-11T00:01:12.460Z,72.97
2018-01-11T00:03:39.484Z,72.96
2018-01-11T00:06:05.755Z,72.80
2018-01-11T00:08:32.024Z,72.71
2018-01-11T00:10:58.288Z,72.91
2018-01-11T00:13:25.325Z,72.89
2018-01-11T00:15:51.544Z,72.87
2018-01-11T00:18:17.797Z,72.98
2018-01-11T00:20:44.033Z,73.08
2018-01-11T00:23:11.018Z,73.28
2018-01-11T00:25:37.271Z,73.61
2018-01-11T00:28:03.532Z,73.78
2018-01-11T00:30:29.789Z,72.98
2018-01-11T00:32:56.046Z,72.86
2018-01-11T00:35:22.303Z,73.26
2018-01-11T00:37:48.543Z,73.38
2018-01-11T00:40:14.833Z,73.56
2018-01-11T00:42:41.102Z,73.28
2018-01-11T00:45:07.399Z,73.43
2018-01-11T00:47:33.655Z,73.36
2018-01-11T00:49:59.919Z,73.02
2018-01-11T00:52:26.919Z,72.84
2018-01-11T00:54:53.187Z,73.03
2018-01-11T00:57:20.192Z,73.48
2018-01-11T00:59:46.440Z,73.50
2018-01-11T01:02:12.693Z,73.46
2018-01-11T01:04:39.754Z,73.31
2018-01-11T01:07:06.031Z,73.17
2018-01-11T01:09:32.328Z,73.23
2018-01-11T01:11:58.600Z,73.22
2018-01-11T01:14:24.848Z,72.42
2018-01-11T01:16:51.118Z,72.21
2018-01-11T01:19:17.354Z,72.38
2018-01-11T01:21:43.588Z,72.33
2018-01-11T01:24:09.820Z,72.50
2018-01-11T01:26:36.111Z,73.13
2018-01-11T01:29:02.341Z,72.95
2018-01-11T01:31:29.322Z,72.78
2018-01-11T01:33:55.548Z,72.69
2018-01-11T01:36:21.865Z,72.69
2018-01-11T01:38:48.056Z,72.59
2018-01-11T01:41:14.337Z,72.74
2018-01-11T01:43:40.572Z,72.71
2018-01-11T01:46:06.828Z,72.75
2018-01-11T01:48:40.816Z,72.46
2018-01-11T01:51:07.100Z,72.54
2018-01-11T01:53:34.168Z,72.90
2018-01-11T01:56:00.450Z,72.89
2018-01-11T01:58:26.770Z,72.83
2018-01-11T02:00:53.047Z,72.77
2018-01-11T02:03:20.089Z,72.55
2018-01-11T02:05:47.073Z,72.70
2018-01-11T02:08:13.401Z,73.22
2018-01-11T02:10:39.715Z,73.11
2018-01-11T02:13:06.001Z,73.30
2018-01-11T02:15:32.275Z,73.42
2018-01-11T02:17:58.575Z,73.29
2018-01-11T02:20:24.797Z,73.38
2018-01-11T02:22:51.055Z,73.30
2018-01-11T02:25:18.057Z,73.31
2018-01-11T02:27:44.287Z,73.02
2018-01-11T02:30:10.553Z,73.03
2018-01-11T02:32:37.566Z,73.07
2018-01-11T02:35:03.840Z,72.64
2018-01-11T02:37:30.048Z,72.26
2018-01-11T02:39:57.022Z,72.22
2018-01-11T02:42:23.305Z,72.15
2018-01-11T02:44:49.592Z,71.76
2018-01-11T02:47:15.905Z,71.74
2018-01-11T02:49:43.077Z,72.21
2018-01-11T02:52:09.312Z,72.19
2018-01-11T02:54:35.549Z,72.26
2018-01-11T02:57:01.820Z,71.96
2018-01-11T02:59:28.045Z,71.99
2018-01-11T03:01:54.315Z,72.29
2018-01-11T03:04:20.586Z,72.73
2018-01-11T03:06:46.830Z,72.48
2018-01-11T03:09:13.078Z,72.63
2018-01-11T03:11:40.064Z,72.76
2018-01-11T03:14:06.324Z,72.67
2018-01-11T03:16:32.551Z,73.01
2018-01-11T03:18:58.833Z,73.03
2018-01-11T03:21:25.103Z,72.79
2018-01-11T03:23:51.339Z,72.72
2018-01-11T03:26:17.639Z,72.82
2018-01-11T03:28:43.865Z,73.00
2018-01-11T03:31:10.140Z,72.94
2018-01-11T03:33:36.361Z,72.76
2018-01-11T03:36:02.644Z,72.68
2018-01-11T03:38:28.953Z,72.73
2018-01-11T03:40:55.955Z,72.63
2018-01-11T03:43:22.195Z,72.67
2018-01-11T03:45:48.457Z,72.77
2018-01-11T03:48:15.441Z,72.62
2018-01-11T03:50:41.691Z,72.27
2018-01-11T03:53:07.992Z,72.39
2018-01-11T03:55:34.201Z,72.38
2018-01-11T03:58:00.463Z,72.58
2018-01-11T04:00:26.735Z,72.63
2018-01-11T04:02:52.992Z,72.50
2018-01-11T04:05:19.246Z,72.60
2018-01-11T04:07:45.476Z,72.56
2018-01-11T04:10:11.717Z,72.49
2018-01-11T04:12:38.028Z,72.22
2018-01-11T04:15:04.280Z,72.44
2018-01-11T04:17:30.544Z,72.67
2018-01-11T04:19:57.521Z,72.41
2018-01-11T04:22:23.804Z,72.50
2018-01-11T04:24:50.080Z,72.46
2018-01-11T04:27:16.361Z,72.17
2018-01-11T04:29:42.547Z,72.22
2018-01-11T04:32:08.901Z,72.41
2018-01-11T04:34:35.176Z,72.43
2018-01-11T04:37:09.190Z,72.29
2018-01-11T04:39:36.158Z,72.38
2018-01-11T04:42:02.418Z,72.37
2018-01-11T04:44:28.666Z,72.50
2018-01-11T04:46:54.916Z,72.32
2018-01-11T04:49:21.156Z,72.03
2018-01-11T04:51:48.165Z,72.04
2018-01-11T04:54:14.472Z,72.07
2018-01-11T04:56:40.724Z,72.14
2018-01-11T04:59:07.013Z,72.10
2018-01-11T05:01:33.247Z,72.66
2018-01-11T05:03:59.543Z,72.93
2018-01-11T05:06:25.771Z,72.59
2018-01-11T05:08:52.045Z,71.45
2018-01-11T05:11:18.344Z,71.72
2018-01-11T05:13:45.373Z,71.70
2018-01-11T05:16:11.663Z,71.26
2018-01-11T05:18:37.936Z,71.30
2018-01-11T05:21:04.191Z,71.38
2018-01-11T05:23:30.450Z,71.15
2018-01-11T05:25:56.687Z,71.13
2018-01-11T05:28:22.935Z,70.32
2018-01-11T05:30:49.237Z,71.11
2018-01-11T05:33:15.506Z,71.80
2018-01-11T05:35:41.741Z,71.79
2018-01-11T05:38:07.960Z,72.15
2018-01-11T05:40:34.287Z,72.15
2018-01-11T05:43:00.520Z,72.15
2018-01-11T05:45:26.841Z,72.47
2018-01-11T05:47:53.069Z,72.39
2018-01-11T05:50:19.308Z,72.55
2018-01-11T05:52:45.590Z,72.63
2018-01-11T05:55:11.916Z,72.92
2018-01-11T05:57:38.212Z,72.93
2018-01-11T06:00:04.454Z,72.89
2018-01-11T06:02:31.452Z,72.21
2018-01-11T06:04:57.670Z,72.54
2018-01-11T06:07:23.962Z,73.13
2018-01-11T06:09:50.957Z,73.28
2018-01-11T06:12:17.235Z,73.29
2018-01-11T06:14:44.209Z,73.37
2018-01-11T06:17:10.423Z,73.55
2018-01-11T06:19:36.695Z,74.19
2018-01-11T06:22:02.990Z,74.66
2018-01-11T06:24:29.237Z,75.13
2018-01-11T06:26:55.475Z,74.84
2018-01-11T06:29:21.749Z,75.08
2018-01-11T06:31:47.991Z,75.09
2018-01-11T06:34:14.994Z,74.95
2018-01-11T06:36:41.197Z,75.13
2018-01-11T06:39:07.443Z,75.26
2018-01-11T06:41:33.718Z,75.23
2018-01-11T06:44:00.696Z,74.95
2018-01-11T06:46:27.016Z,75.01
2018-01-11T06:48:53.313Z,75.21
2018-01-11T06:51:19.574Z,75.31
2018-01-11T06:53:45.800Z,75.29
2018-01-11T06:56:12.062Z,75.67
2018-01-11T06:58:38.318Z,75.75
2018-01-11T07:01:04.616Z,76.04
2018-01-11T07:03:30.872Z,75.81
2018-01-11T07:05:57.118Z,75.80
2018-01-11T07:08:23.389Z,75.69
2018-01-11T07:10:49.660Z,75.85
2018-01-11T07:13:15.929Z,75.77
2018-01-11T07:15:42.924Z,75.62
2018-01-11T07:18:09.220Z,75.55
2018-01-11T07:20:35.469Z,75.18
2018-01-11T07:23:01.735Z,75.00
2018-01-11T07:25:28.034Z,75.02
2018-01-11T07:27:54.316Z,75.22
2018-01-11T07:30:21.311Z,75.26
2018-01-11T07:32:47.566Z,75.01
2018-01-11T07:35:13.811Z,74.75
2018-01-11T07:37:40.074Z,75.03
2018-01-11T07:40:06.353Z,74.77
2018-01-11T07:42:32.607Z,74.63
2018-01-11T07:44:58.887Z,74.73
2018-01-11T07:47:25.163Z,75.03
2018-01-11T07:49:51.381Z,74.81
2018-01-11T07:52:17.639Z,74.57
2018-01-11T07:54:44.596Z,74.37
2018-01-11T07:57:10.937Z,74.38
2018-01-11T07:59:37.918Z,74.58
2018-01-11T08:02:04.290Z,74.49
2018-01-11T08:04:31.252Z,73.93
2018-01-11T08:06:57.476Z,74.03
2018-01-11T08:09:23.820Z,74.05
2018-01-11T08:11:50.856Z,73.32
2018-01-11T08:14:17.130Z,72.99
2018-01-11T08:16:43.501Z,73.02
2018-01-11T08:19:10.470Z,72.79
2018-01-11T08:21:43.747Z,72.49
2018-01-11T08:24:10.738Z,72.00
2018-01-11T08:26:37.023Z,71.62
2018-01-11T08:29:03.977Z,70.37
2018-01-11T08:31:30.983Z,70.10
2018-01-11T08:33:57.219Z,69.53
2018-01-11T08:36:23.484Z,69.23
2018-01-11T08:38:49.740Z,68.99
2018-01-11T08:41:16.062Z,68.50
2018-01-11T08:43:42.295Z,67.68
2018-01-11T08:46:08.582Z,67.37
2018-01-11T08:48:35.548Z,67.11
2018-01-11T08:51:02.583Z,66.38
2018-01-11T08:53:29.583Z,65.92
2018-01-11T08:55:55.805Z,65.19
2018-01-11T08:58:22.105Z,64.65
2018-01-11T09:00:48.459Z,64.38
2018-01-11T09:03:14.721Z,63.72
2018-01-11T09:05:41.012Z,63.39
2018-01-11T09:08:07.239Z,62.94
2018-01-11T09:10:33.521Z,62.62
2018-01-11T09:12:59.755Z,62.40
2018-01-11T09:15:25.984Z,62.52
2018-01-11T09:17:52.271Z,62.16
2018-01-11T09:20:18.543Z,62.39
2018-01-11T09:22:44.823Z,62.36
2018-01-11T09:25:11.051Z,62.19
2018-01-11T09:27:37.287Z,62.13
2018-01-11T09:30:03.552Z,61.20
2018-01-11T09:32:29.966Z,60.98
2018-01-11T09:34:56.598Z,60.74
2018-01-11T09:37:22.831Z,60.34
2018-01-11T09:39:49.096Z,59.72
2018-01-11T09:42:15.312Z,59.20
2018-01-11T09:44:41.625Z,58.44
2018-01-11T09:47:07.892Z,56.63
2018-01-11T09:49:34.908Z,56.25
2018-01-11T09:52:01.132Z,56.21
2018-01-11T09:54:27.436Z,56.44
2018-01-11T09:56:53.682Z,56.23
2018-01-11T09:59:19.920Z,56.95
2018-01-11T10:01:46.211Z,57.35
2018-01-11T10:04:12.440Z,57.66
2018-01-11T10:06:38.754Z,57.81
2018-01-11T10:09:05.781Z,58.39
2018-01-11T10:11:32.020Z,58.82
2018-01-11T10:13:59.051Z,59.01
2018-01-11T10:16:25.339Z,58.93
2018-01-11T10:18:51.564Z,58.81
2018-01-11T10:21:17.785Z,58.91
2018-01-11T10:23:44.095Z,59.49
2018-01-11T10:26:11.062Z,59.64
2018-01-11T10:28:37.333Z,59.75
2018-01-11T10:31:03.620Z,59.25
2018-01-11T10:33:29.899Z,58.92
2018-01-11T10:35:56.139Z,58.85
2018-01-11T10:38:22.399Z,58.73
2018-01-11T10:40:48.805Z,58.38
2018-01-11T10:43:15.104Z,59.07
2018-01-11T10:45:41.356Z,59.10
2018-01-11T10:48:08.356Z,59.52
2018-01-11T10:50:34.624Z,59.57
2018-01-11T10:53:00.882Z,59.83
2018-01-11T10:55:27.852Z,60.45
2018-01-11T10:57:54.121Z,60.81
2018-01-11T11:00:20.450Z,60.59
2018-01-11T11:02:48.619Z,60.20
2018-01-11T11:05:14.893Z,59.52
2018-01-11T11:07:41.901Z,58.85
2018-01-11T11:10:08.204Z,57.23
2018-01-11T11:12:34.468Z,55.71
2018-01-11T11:15:00.715Z,53.84
2018-01-11T11:17:26.939Z,52.17
2018-01-11T11:19:53.369Z,49.45
2018-01-11T11:22:19.617Z,48.32
2018-01-11T11:24:46.661Z,47.26
2018-01-11T11:27:12.940Z,45.62
2018-01-11T11:29:39.233Z,44.89
2018-01-11T11:32:05.480Z,43.49
2018-01-11T11:34:31.748Z,43.85
2018-01-11T11:36:58.127Z,42.34
2018-01-11T11:39:25.132Z,40.10
2018-01-11T11:41:51.356Z,38.08
2018-01-11T11:44:17.632Z,38.22
2018-01-11T11:46:44.680Z,36.41
2018-01-11T11:49:11.721Z,34.75
2018-01-11T11:51:38.708Z,33.07
2018-01-11T11:54:04.974Z,32.02
2018-01-11T11:56:31.210Z,31.67
2018-01-11T11:58:57.481Z,32.70
2018-01-11T12:01:23.707Z,32.13
2018-01-11T12:03:49.987Z,31.11
2018-01-11T12:06:16.249Z,30.27
2018-01-11T12:08:43.252Z,29.95
2018-01-11T12:11:09.545Z,30.12
2018-01-11T12:13:35.807Z,29.20
2018-01-11T12:16:02.144Z,29.50
2018-01-11T12:18:28.447Z,28.66
2018-01-11T12:20:54.721Z,30.13
2018-01-11T12:23:20.965Z,29.16
2018-01-11T12:25:47.269Z,27.20
2018-01-11T12:28:13.511Z,26.35
2018-01-11T12:30:39.809Z,25.21
2018-01-11T12:33:06.041Z,27.37
2018-01-11T12:35:32.335Z,31.29
2018-01-11T12:37:58.611Z,32.77
2018-01-11T12:40:24.923Z,30.37
2018-01-11T12:42:51.141Z,27.78
2018-01-11T12:45:24.445Z,27.42
2018-01-11T12:47:50.710Z,31.64
2018-01-11T12:50:16.923Z,31.45
2018-01-11T12:52:43.191Z,29.34
2018-01-11T12:55:09.565Z,28.60
2018-01-11T12:57:35.826Z,31.06
2018-01-11T13:00:02.088Z,28.78
2018-01-11T13:02:28.374Z,30.43
2018-01-11T13:04:54.648Z,28.04
2018-01-11T13:07:21.630Z,26.22
2018-01-11T13:09:47.951Z,26.55
2018-01-11T13:12:14.191Z,27.49
2018-01-11T13:14:40.477Z,28.54
2018-01-11T13:17:07.525Z,29.59
2018-01-11T13:19:33.744Z,27.75
2018-01-11T13:21:59.983Z,27.00
2018-01-11T13:24:26.537Z,26.21
2018-01-11T13:26:53.544Z,25.39
2018-01-11T13:29:19.772Z,24.50
2018-01-11T13:31:45.996Z,26.64
2018-01-11T13:34:12.260Z,26.96
2018-01-11T13:36:39.270Z,25.89
2018-01-11T13:39:05.515Z,26.05
2018-01-11T13:41:31.796Z,25.01
2018-01-11T13:44:04.991Z,24.84
2018-01-11T13:46:31.243Z,28.55
2018-01-11T13:48:57.511Z,28.48
2018-01-11T13:51:24.513Z,33.64
2018-01-11T13:53:50.756Z,38.41
2018-01-11T13:56:17.038Z,41.01
2018-01-11T13:58:44.102Z,43.57
2018-01-11T14:01:10.355Z,45.70
2018-01-11T14:03:36.952Z,47.52
2018-01-11T14:06:04.019Z,48.69
2018-01-11T14:08:30.304Z,49.64
2018-01-11T14:10:56.537Z,50.45
2018-01-11T14:13:22.830Z,52.07
2018-01-11T14:15:49.073Z,51.82
2018-01-11T14:18:15.321Z,52.69
2018-01-11T14:20:42.345Z,53.19
2018-01-11T14:23:08.641Z,52.36
2018-01-11T14:25:34.919Z,53.02
2018-01-11T14:28:01.197Z,53.84
2018-01-11T14:30:27.459Z,54.35
2018-01-11T14:32:53.926Z,54.54
2018-01-11T14:35:20.246Z,55.69
2018-01-11T14:37:46.445Z,55.34
2018-01-11T14:40:12.751Z,55.51
2018-01-11T14:42:38.991Z,55.94
2018-01-11T14:45:05.284Z,55.94
2018-01-11T14:47:32.601Z,56.16
2018-01-11T14:49:58.983Z,56.52
2018-01-11T14:52:26.076Z,56.87
2018-01-11T14:54:52.371Z,56.76
2018-01-11T14:57:19.724Z,57.38
2018-01-11T14:59:46.704Z,57.40
2018-01-11T15:02:13.142Z,57.23
2018-01-11T15:04:39.380Z,57.32
2018-01-11T15:07:05.638Z,57.67
2018-01-11T15:09:31.952Z,58.32
2018-01-11T15:11:58.287Z,58.71
2018-01-11T15:14:24.593Z,58.34
2018-01-11T15:16:57.920Z,58.63
2018-01-11T15:19:24.221Z,58.90
2018-01-11T15:21:50.572Z,59.38
2018-01-11T15:24:16.845Z,59.68
2018-01-11T15:26:43.880Z,59.54
2018-01-11T15:29:10.994Z,59.81
2018-01-11T15:31:37.297Z,59.83
2018-01-11T15:34:03.532Z,59.92
2018-01-11T15:36:29.816Z,60.33
2018-01-11T15:38:56.161Z,60.24
2018-01-11T15:41:23.137Z,60.85
2018-01-11T15:43:49.437Z,61.76
2018-01-11T15:46:16.483Z,62.05
2018-01-11T15:48:43.521Z,62.49
2018-01-11T15:51:10.577Z,62.74
2018-01-11T15:53:37.600Z,62.99
2018-01-11T15:56:03.871Z,63.17
2018-01-11T15:58:30.169Z,63.65
2018-01-11T16:00:56.432Z,64.20
2018-01-11T16:03:22.746Z,64.24
2018-01-11T16:05:49.740Z,64.87
2018-01-11T16:08:16.123Z,64.96
2018-01-11T16:10:43.120Z,65.29
2018-01-11T16:13:09.402Z,65.65
2018-01-11T16:15:35.688Z,66.79
2018-01-11T16:18:02.060Z,67.08
2018-01-11T16:20:29.154Z,67.47
2018-01-11T16:22:55.437Z,67.29
2018-01-11T16:25:22.809Z,67.20
2018-01-11T16:27:49.114Z,67.62
2018-01-11T16:30:15.375Z,67.83
2018-01-11T16:32:41.673Z,68.34
2018-01-11T16:35:08.695Z,68.48
2018-01-11T16:37:34.948Z,68.57
2018-01-11T16:40:01.211Z,69.62
2018-01-11T16:42:27.548Z,70.10
2018-01-11T16:44:53.805Z,70.33
2018-01-11T16:47:20.125Z,69.89
2018-01-11T16:49:46.370Z,70.23
2018-01-11T16:52:12.662Z,70.20
2018-01-11T16:54:38.918Z,70.13
2018-01-11T16:57:05.180Z,70.84
2018-01-11T16:59:31.516Z,70.77
2018-01-11T17:01:57.787Z,70.82
2018-01-11T17:04:24.113Z,71.03
2018-01-11T17:06:50.378Z,71.55
2018-01-11T17:09:16.722Z,71.71
2018-01-11T17:11:43.022Z,71.86
2018-01-11T17:14:09.323Z,71.70
2018-01-11T17:16:36.320Z,72.13
2018-01-11T17:19:02.608Z,72.59
2018-01-11T17:21:28.822Z,72.49
2018-01-11T17:23:55.872Z,72.07
2018-01-11T17:26:22.931Z,71.49
2018-01-11T17:28:49.207Z,71.92
2018-01-11T17:31:15.481Z,72.09
2018-01-11T17:33:42.485Z,72.05
2018-01-11T17:36:08.767Z,72.01
2018-01-11T17:38:35.101Z,71.73
2018-01-11T17:41:01.429Z,70.88
2018-01-11T17:43:27.777Z,70.72
2018-01-11T17:45:54.217Z,70.95
2018-01-11T17:48:27.370Z,71.17
2018-01-11T17:50:54.469Z,71.68
2018-01-11T17:53:20.789Z,71.41
2018-01-11T17:55:47.111Z,71.50
2018-01-11T17:58:14.319Z,72.28
2018-01-11T18:00:41.354Z,71.91
2018-01-11T18:03:07.673Z,71.58
2018-01-11T18:05:33.953Z,71.90
2018-01-11T18:08:01.053Z,71.67
2018-01-11T18:10:27.438Z,72.51
2018-01-11T18:12:55.090Z,73.18
2018-01-11T18:15:21.477Z,73.47
2018-01-11T18:17:47.820Z,73.51
2018-01-11T18:20:14.121Z,73.51
2018-01-11T18:22:40.408Z,73.53
2018-01-11T18:25:07.452Z,73.61
2018-01-11T18:27:35.452Z,74.10
2018-01-11T18:30:01.745Z,73.81
2018-01-11T18:32:28.047Z,73.84
2018-01-11T18:34:54.342Z,73.16
2018-01-11T18:37:20.798Z,73.47
2018-01-11T18:39:47.052Z,73.96
2018-01-11T18:42:13.593Z,74.44
2018-01-11T18:44:39.873Z,74.49
2018-01-11T18:47:06.126Z,75.09
2018-01-11T18:49:32.754Z,74.88
2018-01-11T18:51:59.055Z,74.75
2018-01-11T18:54:26.108Z,75.24
2018-01-11T18:56:53.119Z,75.39
2018-01-11T18:59:19.528Z,75.21
2018-01-11T19:01:45.811Z,74.60
2018-01-11T19:04:12.866Z,73.92
2018-01-11T19:06:39.891Z,73.31
2018-01-11T19:09:07.295Z,73.02
2018-01-11T19:11:33.624Z,72.32
2018-01-11T19:14:00.091Z,72.35
2018-01-11T19:16:26.363Z,72.32
2018-01-11T19:18:53.489Z,72.53
2018-01-11T19:21:19.774Z,72.70
2018-01-11T19:23:46.031Z,73.48
2018-01-11T19:26:12.387Z,73.68
2018-01-11T19:28:39.432Z,73.29
2018-01-11T19:31:05.724Z,72.68
2018-01-11T19:33:32.017Z,73.01
2018-01-11T19:35:59.062Z,72.82
2018-01-11T19:38:26.084Z,72.98
2018-01-11T19:40:52.351Z,73.29
2018-01-11T19:43:18.674Z,74.69
2018-01-11T19:45:44.968Z,75.00
2018-01-11T19:48:11.265Z,75.00
2018-01-11T19:50:37.654Z,75.89
2018-01-11T19:53:04.114Z,75.81
2018-01-11T19:55:30.524Z,76.12
2018-01-11T19:57:56.870Z,75.75
2018-01-11T20:00:23.412Z,75.80
2018-01-11T20:02:49.717Z,75.22
2018-01-11T20:05:16.850Z,74.55
2018-01-11T20:07:43.955Z,73.50
2018-01-11T20:10:10.316Z,73.53
2018-01-11T20:12:36.732Z,73.62
2018-01-11T20:15:03.040Z,73.40
2018-01-11T20:17:29.389Z,73.14
2018-01-11T20:19:55.710Z,73.25
2018-01-11T20:22:22.084Z,73.28
2018-01-11T20:24:48.439Z,73.17
2018-01-11T20:27:15.625Z,73.08
2018-01-11T20:29:41.961Z,72.55
2018-01-11T20:32:08.363Z,72.06
2018-01-11T20:34:35.499Z,71.83
2018-01-11T20:37:01.858Z,71.26
2018-01-11T20:39:28.261Z,71.14
2018-01-11T20:41:54.593Z,70.90
2018-01-11T20:44:21.678Z,70.93
2018-01-11T20:46:48.013Z,70.41
2018-01-11T20:49:14.376Z,70.24
2018-01-11T20:51:40.737Z,70.31
2018-01-11T20:54:07.876Z,70.02
2018-01-11T20:56:34.250Z,70.08
2018-01-11T20:59:00.576Z,70.26
2018-01-11T21:01:26.940Z,69.69
2018-01-11T21:03:53.282Z,69.52
2018-01-11T21:06:19.639Z,69.38
2018-01-11T21:08:45.873Z,69.29
2018-01-11T21:11:12.332Z,69.72
2018-01-11T21:13:38.711Z,70.72
2018-01-11T21:16:04.976Z,72.33
2018-01-11T21:18:32.223Z,73.99
2018-01-11T21:20:58.535Z,74.92
2018-01-11T21:23:24.914Z,74.93
2018-01-11T21:25:51.213Z,74.83
2018-01-11T21:28:17.506Z,74.48
2018-01-11T21:30:44.659Z,74.67
2018-01-11T21:33:10.990Z,75.60
2018-01-11T21:35:37.358Z,75.22
2018-01-11T21:38:03.695Z,75.77
2018-01-11T21:40:30.769Z,75.68
2018-01-11T21:42:57.099Z,75.77
2018-01-11T21:45:23.383Z,75.57
2018-01-11T21:47:49.708Z,76.23
2018-01-11T21:50:16.034Z,76.49
2018-01-11T21:52:42.287Z,76.94
2018-01-11T21:55:08.998Z,77.45
2018-01-11T21:57:35.366Z,77.01
2018-01-11T22:00:02.408Z,76.23
2018-01-11T22:02:28.796Z,75.56
2018-01-11T22:04:55.092Z,75.55
2018-01-11T22:07:22.145Z,75.09
2018-01-11T22:09:49.146Z,74.26
2018-01-11T22:12:15.535Z,74.07
2018-01-11T22:14:41.823Z,73.73
2018-01-11T22:17:08.313Z,72.98
2018-01-11T22:19:34.609Z,72.30
2018-01-11T22:22:01.623Z,71.73
2018-01-11T22:24:27.937Z,72.00
2018-01-11T22:26:54.211Z,71.51
2018-01-11T22:29:21.264Z,71.58
2018-01-11T22:31:48.283Z,71.66
2018-01-11T22:34:14.628Z,72.32
2018-01-11T22:36:40.942Z,71.80
2018-01-11T22:39:07.380Z,71.47
2018-01-11T22:41:33.697Z,71.52
2018-01-11T22:43:59.912Z,71.50
2018-01-11T22:46:26.156Z,71.34
2018-01-11T22:48:52.416Z,71.35
2018-01-11T22:51:19.504Z,71.15
2018-01-11T22:53:45.748Z,70.88
2018-01-11T22:56:12.024Z,71.20
2018-01-11T22:58:38.324Z,71.94
2018-01-11T23:01:04.631Z,72.58
2018-01-11T23:03:31.036Z,72.66
2018-01-11T23:05:58.267Z,72.47
2018-01-11T23:08:24.544Z,72.27
2018-01-11T23:10:50.856Z,72.03
2018-01-11T23:13:17.913Z,71.35
2018-01-11T23:15:44.943Z,71.76
2018-01-11T23:18:11.301Z,71.16
2018-01-11T23:20:37.555Z,70.37
2018-01-11T23:23:03.900Z,70.50
2018-01-11T23:25:30.149Z,70.01
2018-01-11T23:27:57.197Z,69.95
2018-01-11T23:30:23.436Z,70.04
2018-01-11T23:32:50.464Z,69.70
2018-01-11T23:35:18.220Z,69.04
2018-01-11T23:37:44.548Z,69.24
2018-01-11T23:40:10.812Z,69.46
2018-01-11T23:42:37.948Z,69.54
2018-01-11T23:45:04.218Z,69.75
2018-01-11T23:47:30.440Z,70.01
2018-01-11T23:49:56.742Z,69.66
2018-01-11T23:52:23.800Z,69.55
2018-01-11T23:54:50.841Z,69.77
2018-01-11T23:57:17.917Z,69.95
2018-01-11T23:59:44.181Z,69.71
